Time;durP1;ratioP1;P1;durP2;ratioP2;P2;SDS_P1;SDS_P2;PMS_P1;PMS_P2;Temp;Humidity;BMP_temperature;BMP_pressure;BME280_temperature;BME280_humidity;BME280_pressure;Samples;Min_cycle;Max_cycle;Signal;HPM_P1;HPM_P2
2021/10/29 00:00:49;;;;;;;14.97;11.10;;;;;;;11.24;79.08;100809.06;5077813;28;20174;-72
2021/10/29 00:03:14;;;;;;;17.30;11.50;;;;;;;11.37;78.39;100818.13;5092502;22;20229;-77
2021/10/29 00:05:40;;;;;;;15.93;11.50;;;;;;;11.30;78.98;100816.75;5079228;28;20178;-75
2021/10/29 00:08:05;;;;;;;16.60;12.00;;;;;;;11.26;78.87;100821.41;5078273;28;20182;-74
2021/10/29 00:10:31;;;;;;;14.70;10.87;;;;;;;11.73;77.79;100833.88;5081990;28;20180;-74
2021/10/29 00:12:57;;;;;;;16.90;12.07;;;;;;;11.23;79.07;100815.38;5065345;28;20214;-76
2021/10/29 00:15:22;;;;;;;17.77;11.73;;;;;;;11.20;78.66;100821.75;5068054;28;20202;-76
2021/10/29 00:17:49;;;;;;;19.30;12.53;;;;;;;11.20;78.53;100823.56;5075569;28;20171;-74
2021/10/29 00:20:14;;;;;;;16.67;12.03;;;;;;;11.53;78.13;100827.00;5071958;28;20665;-74
2021/10/29 00:22:40;;;;;;;21.43;12.30;;;;;;;11.05;79.33;100827.06;5083699;28;20197;-74
2021/10/29 00:25:06;;;;;;;19.57;11.50;;;;;;;11.49;78.85;100828.09;5074452;28;20178;-74
2021/10/29 00:27:31;;;;;;;18.63;11.70;;;;;;;10.87;79.79;100797.75;5041916;28;20176;-75
2021/10/29 00:29:57;;;;;;;19.40;11.70;;;;;;;11.14;79.45;100810.50;5065425;28;20226;-75
2021/10/29 00:32:23;;;;;;;18.77;12.23;;;;;;;11.32;78.67;100809.50;5058566;28;20170;-75
2021/10/29 00:34:49;;;;;;;21.10;12.67;;;;;;;11.27;79.33;100824.94;5076562;28;20507;-75
2021/10/29 00:37:14;;;;;;;14.73;11.10;;;;;;;11.03;79.35;100812.91;5070588;28;20178;-74
2021/10/29 00:39:40;;;;;;;16.00;11.90;;;;;;;11.19;79.39;100811.16;5070271;28;20205;-75
2021/10/29 00:42:05;;;;;;;19.53;12.90;;;;;;;10.90;79.99;100815.41;5053416;28;20171;-75
2021/10/29 00:44:30;;;;;;;17.47;12.10;;;;;;;11.23;79.00;100815.38;5069961;28;20190;-75
2021/10/29 00:46:56;;;;;;;18.60;12.03;;;;;;;11.05;79.90;100811.88;5053318;28;20179;-75
2021/10/29 00:49:21;;;;;;;18.03;12.37;;;;;;;10.80;80.93;100811.53;5070298;28;20208;-74
2021/10/29 00:51:47;;;;;;;18.10;12.33;;;;;;;11.07;79.49;100818.00;5070062;28;20269;-74
2021/10/29 00:54:15;;;;;;;15.30;12.03;;;;;;;11.08;79.20;100813.53;5053530;28;20198;-73
2021/10/29 00:56:40;;;;;;;18.20;12.20;;;;;;;10.83;79.97;100809.56;5070167;28;20175;-74
2021/10/29 00:59:06;;;;;;;21.03;13.07;;;;;;;10.87;80.63;100821.78;5060751;28;20179;-74
2021/10/29 01:01:31;;;;;;;18.90;12.00;;;;;;;10.77;80.56;100811.66;5054819;28;20275;-74
2021/10/29 01:03:56;;;;;;;18.10;12.00;;;;;;;10.77;80.42;100817.00;5055281;28;20252;-74
2021/10/29 01:06:22;;;;;;;15.40;12.17;;;;;;;10.91;79.91;100814.47;5070507;28;20175;-74
2021/10/29 01:08:47;;;;;;;17.00;11.67;;;;;;;11.17;79.61;100821.06;5069726;28;20198;-74
2021/10/29 01:11:14;;;;;;;19.67;13.80;;;;;;;10.88;79.40;100812.81;5070310;28;20561;-74
2021/10/29 01:13:46;;;;;;;19.23;13.60;;;;;;;11.02;79.95;100819.22;5052601;28;20198;-74
2021/10/29 01:16:12;;;;;;;18.67;12.83;;;;;;;11.04;79.51;100822.66;5069768;28;20159;-74
2021/10/29 01:18:37;;;;;;;21.27;12.83;;;;;;;11.11;79.60;100821.38;5069660;28;20225;-74
2021/10/29 01:21:03;;;;;;;19.70;13.73;;;;;;;10.84;79.66;100818.41;5069744;28;20178;-74
2021/10/29 01:23:28;;;;;;;23.53;13.10;;;;;;;10.78;80.18;100808.94;5052693;28;20282;-74
2021/10/29 01:26:06;;;;;;;17.20;12.30;;;;;;;10.92;79.98;100817.06;5053279;28;20224;-73
2021/10/29 01:28:31;;;;;;;17.50;12.73;;;;;;;11.05;79.25;100822.56;5070586;28;20186;-74
2021/10/29 01:30:56;;;;;;;17.77;13.00;;;;;;;11.05;79.13;100816.38;5053847;28;20229;-73
2021/10/29 01:33:22;;;;;;;20.07;12.57;;;;;;;11.16;78.54;100812.19;5053730;28;20195;-74
2021/10/29 01:35:47;;;;;;;19.33;13.87;;;;;;;10.97;79.11;100803.44;5054698;28;20221;-74
2021/10/29 01:38:14;;;;;;;17.00;13.20;;;;;;;10.76;80.33;100804.59;5053068;28;20228;-74
2021/10/29 01:40:39;;;;;;;20.80;12.77;;;;;;;10.68;80.39;100798.81;5070059;28;20645;-74
2021/10/29 01:43:05;;;;;;;21.53;14.17;;;;;;;10.78;80.67;100800.03;5054463;28;20199;-74
2021/10/29 01:45:32;;;;;;;25.07;14.03;;;;;;;10.63;80.12;100785.72;5053223;28;20178;-74
2021/10/29 01:47:58;;;;;;;17.43;13.17;;;;;;;10.71;80.12;100788.84;5036880;28;20178;-74
2021/10/29 01:50:23;;;;;;;25.00;13.63;;;;;;;10.86;80.25;100789.81;5042750;28;20721;-74
2021/10/29 01:52:49;;;;;;;21.83;13.57;;;;;;;10.80;79.91;100783.03;5059555;28;20240;-75
2021/10/29 01:55:14;;;;;;;20.77;14.23;;;;;;;10.82;79.42;100783.78;5059697;28;20664;-74
2021/10/29 01:57:39;;;;;;;18.87;13.73;;;;;;;10.79;79.24;100783.09;5041522;28;20185;-74
2021/10/29 02:00:07;;;;;;;24.93;14.20;;;;;;;10.60;80.53;100781.41;5071953;28;20184;-74
2021/10/29 02:02:32;;;;;;;22.93;14.07;;;;;;;10.58;81.18;100774.44;5052597;28;20186;-74
2021/10/29 02:04:57;;;;;;;26.40;14.70;;;;;;;10.35;81.36;100756.97;5053174;28;20657;-74
2021/10/29 02:07:22;;;;;;;20.93;15.40;;;;;;;10.09;82.71;100763.66;5052572;28;20189;-74
2021/10/29 02:09:48;;;;;;;25.00;14.17;;;;;;;10.33;81.80;100780.19;5054185;28;20202;-74
2021/10/29 02:12:13;;;;;;;21.03;14.87;;;;;;;10.32;81.70;100771.34;5053025;28;20548;-74
2021/10/29 02:14:38;;;;;;;20.40;15.10;;;;;;;10.28;81.75;100767.13;5052892;28;20197;-75
2021/10/29 02:17:04;;;;;;;23.03;15.60;;;;;;;10.20;81.76;100769.31;5069413;28;20189;-74
2021/10/29 02:19:29;;;;;;;22.10;15.23;;;;;;;10.21;82.18;100767.53;5052686;28;20661;-74
2021/10/29 02:21:54;;;;;;;22.83;15.77;;;;;;;10.24;81.74;100759.34;5070548;28;20183;-74
2021/10/29 02:24:20;;;;;;;22.60;14.43;;;;;;;9.92;82.12;100758.31;5036659;28;20203;-75
2021/10/29 02:26:45;;;;;;;23.63;16.60;;;;;;;9.88;83.21;100759.44;5055441;28;20180;-75
2021/10/29 02:29:10;;;;;;;26.83;16.47;;;;;;;9.99;83.58;100771.25;5055276;28;20201;-74
2021/10/29 02:31:39;;;;;;;23.00;15.80;;;;;;;9.90;83.30;100778.88;5071269;28;20189;-74
2021/10/29 02:34:04;;;;;;;22.77;15.80;;;;;;;10.03;82.44;100770.19;5053612;28;20206;-74
2021/10/29 02:36:29;;;;;;;22.13;16.63;;;;;;;9.78;82.93;100776.84;5053500;28;20179;-74
2021/10/29 02:38:55;;;;;;;24.30;16.47;;;;;;;10.05;82.84;100780.78;5052932;28;20695;-75
2021/10/29 02:41:20;;;;;;;24.07;16.90;;;;;;;10.03;82.49;100771.94;5053088;28;20176;-74
2021/10/29 02:43:46;;;;;;;26.00;16.97;;;;;;;9.95;82.56;100780.34;5071484;28;20577;-74
2021/10/29 02:46:11;;;;;;;26.87;16.70;;;;;;;10.11;81.64;100779.59;5073767;28;20180;-75
2021/10/29 02:48:36;;;;;;;25.83;17.87;;;;;;;9.87;83.64;100777.22;5073892;28;20669;-74
2021/10/29 02:51:02;;;;;;;27.83;18.30;;;;;;;10.11;82.29;100784.91;5058489;28;20178;-74
2021/10/29 02:53:30;;;;;;;27.63;17.87;;;;;;;9.92;83.21;100776.97;5073880;28;20195;-74
2021/10/29 02:55:55;;;;;;;27.47;17.97;;;;;;;9.71;83.77;100777.16;5073716;28;20171;-74
2021/10/29 02:58:21;;;;;;;30.93;19.03;;;;;;;9.19;85.26;100775.28;5058036;28;20179;-75
2021/10/29 03:00:46;;;;;;;28.57;19.07;;;;;;;9.92;83.54;100776.97;5074045;28;20179;-74
2021/10/29 03:03:11;;;;;;;27.67;18.87;;;;;;;9.83;83.10;100777.47;5072580;28;20215;-75
2021/10/29 03:05:38;;;;;;;27.60;19.53;;;;;;;9.83;83.45;100785.47;5056325;28;20181;-74
2021/10/29 03:08:04;;;;;;;28.10;19.03;;;;;;;9.59;83.79;100777.72;5055994;28;20182;-75
2021/10/29 03:10:30;;;;;;;33.13;20.20;;;;;;;9.32;85.47;100784.44;5039275;28;20207;-74
2021/10/29 03:12:55;;;;;;;33.00;21.17;;;;;;;9.45;84.40;100774.03;5055777;28;20685;-74
2021/10/29 03:15:20;;;;;;;28.73;20.07;;;;;;;9.35;85.17;100773.63;5072876;28;20222;-74
2021/10/29 03:17:46;;;;;;;30.60;20.43;;;;;;;9.35;85.15;100770.97;5072227;28;20171;-74
2021/10/29 03:20:11;;;;;;;28.37;19.97;;;;;;;9.26;85.86;100769.59;5055636;28;20179;-75
2021/10/29 03:22:37;;;;;;;27.53;18.83;;;;;;;9.57;84.51;100789.41;5072835;28;20696;-74
2021/10/29 03:25:04;;;;;;;31.00;19.87;;;;;;;9.29;85.78;100777.47;5039000;28;20646;-74
2021/10/29 03:27:29;;;;;;;33.63;21.73;;;;;;;9.18;86.99;100773.56;5055842;28;20175;-75
2021/10/29 03:29:55;;;;;;;32.63;20.97;;;;;;;9.25;85.89;100775.00;5072370;28;20546;-74
2021/10/29 03:32:22;;;;;;;33.03;21.80;;;;;;;9.28;85.34;100770.38;5060581;28;20183;-74
2021/10/29 03:34:48;;;;;;;29.80;20.13;;;;;;;9.34;85.01;100780.75;5058357;28;20258;-75
2021/10/29 03:37:31;;;;;;;29.30;21.23;;;;;;;9.22;85.87;100788.47;5040467;28;20199;-75
2021/10/29 03:40:07;;;;;;;29.63;21.13;;;;;;;9.11;86.27;100788.13;5057238;28;20708;-75
2021/10/29 03:42:36;;;;;;;34.03;21.23;;;;;;;9.08;86.69;100787.31;5041528;28;20172;-75
2021/10/29 03:45:05;;;;;;;33.47;21.17;;;;;;;9.03;86.94;100784.03;5056033;28;20177;-75
2021/10/29 03:47:38;;;;;;;30.00;20.87;;;;;;;8.92;87.15;100782.78;5056430;28;20545;-74
2021/10/29 03:52:52;;;;;;;34.63;22.30;;;;;;;8.52;89.20;100776.63;5056542;28;20275;-75
2021/10/29 03:55:18;;;;;;;31.90;21.87;;;;;;;8.57;89.05;100776.44;5055799;28;20188;-74
2021/10/29 03:57:43;;;;;;;37.73;22.97;;;;;;;8.56;89.41;100772.94;5057396;28;20205;-74
2021/10/29 04:00:09;;;;;;;32.87;22.90;;;;;;;8.61;89.14;100775.38;5073797;28;20533;-74
2021/10/29 04:02:34;;;;;;;31.63;21.97;;;;;;;8.60;89.21;100768.31;5057606;28;20561;-74
2021/10/29 04:04:59;;;;;;;38.90;23.67;;;;;;;8.59;89.81;100777.25;5056004;28;20160;-74
2021/10/29 04:07:24;;;;;;;34.87;22.87;;;;;;;8.56;88.97;100772.94;5064131;28;20586;-74
2021/10/29 04:09:50;;;;;;;31.00;22.90;;;;;;;8.40;89.15;100778.06;5077424;28;20291;-75
2021/10/29 04:12:17;;;;;;;35.90;22.87;;;;;;;8.50;89.58;100772.31;5059693;28;20180;-74
2021/10/29 04:14:43;;;;;;;36.13;23.67;;;;;;;8.77;88.75;100781.72;5073210;28;20167;-74
2021/10/29 04:17:09;;;;;;;35.10;23.10;;;;;;;8.68;88.90;100790.13;5072201;28;20577;-74
2021/10/29 04:19:34;;;;;;;35.73;23.97;;;;;;;8.41;89.99;100781.56;5055249;28;20176;-74
2021/10/29 04:22:00;;;;;;;34.97;24.83;;;;;;;8.62;89.25;100779.75;5054971;28;20175;-75
2021/10/29 04:24:26;;;;;;;37.37;24.37;;;;;;;8.71;88.34;100782.84;5071949;28;20561;-74
2021/10/29 04:26:51;;;;;;;38.50;24.93;;;;;;;8.43;89.53;100777.06;5071575;28;20174;-75
2021/10/29 04:29:17;;;;;;;39.40;25.30;;;;;;;8.48;89.82;100768.88;5071438;28;20648;-74
2021/10/29 04:31:50;;;;;;;41.47;25.70;;;;;;;8.28;89.96;100778.56;5056037;28;20667;-74
2021/10/29 04:34:23;;;;;;;38.23;25.17;;;;;;;8.39;89.36;100770.16;5071081;28;20184;-74
2021/10/29 04:36:49;;;;;;;44.57;26.93;;;;;;;8.36;90.62;100772.94;5055345;28;20168;-75
2021/10/29 04:39:15;;;;;;;41.80;26.93;;;;;;;8.34;90.24;100766.84;5055268;28;20171;-75
2021/10/29 04:41:41;;;;;;;38.37;24.30;;;;;;;8.51;90.03;100761.59;5071522;28;20174;-74
2021/10/29 04:44:07;;;;;;;38.67;25.57;;;;;;;8.21;90.34;100773.59;5054197;28;20244;-74
2021/10/29 04:46:33;;;;;;;37.37;26.00;;;;;;;8.12;91.25;100769.53;5071768;28;20576;-74
2021/10/29 04:48:58;;;;;;;39.93;26.23;;;;;;;8.37;90.63;100772.00;5037426;28;20207;-74
2021/10/29 04:51:24;;;;;;;35.07;24.20;;;;;;;8.33;90.08;100762.41;5071747;28;20168;-75
2021/10/29 04:53:49;;;;;;;38.77;24.63;;;;;;;8.21;91.15;100765.63;5070549;28;20271;-74
2021/10/29 04:56:14;;;;;;;39.03;26.33;;;;;;;8.17;91.09;100759.56;5055279;28;20198;-76
2021/10/29 04:58:40;;;;;;;42.00;26.27;;;;;;;8.04;90.89;100755.72;5055105;28;20205;-74
2021/10/29 05:01:05;;;;;;;40.93;24.93;;;;;;;8.33;90.61;100758.00;5054018;28;20188;-74
2021/10/29 05:03:30;;;;;;;37.40;24.63;;;;;;;8.34;90.65;100758.84;5053792;28;20234;-74
2021/10/29 05:05:56;;;;;;;43.80;27.83;;;;;;;7.94;91.06;100765.88;5059045;28;20180;-75
2021/10/29 05:08:21;;;;;;;40.97;27.27;;;;;;;8.16;91.83;100774.66;5059618;28;20629;-75
2021/10/29 05:10:46;;;;;;;42.07;26.90;;;;;;;8.21;91.15;100773.59;5074078;28;20180;-75
2021/10/29 05:13:11;;;;;;;43.87;26.60;;;;;;;8.18;90.20;100779.03;5053367;28;20206;-75
2021/10/29 05:15:37;;;;;;;39.20;26.60;;;;;;;8.07;91.31;100774.19;5055596;28;20190;-74
2021/10/29 05:18:02;;;;;;;42.07;27.40;;;;;;;8.18;91.31;100785.25;5054340;28;20183;-74
2021/10/29 05:20:28;;;;;;;39.40;26.93;;;;;;;8.00;92.11;100778.91;5054024;28;20194;-74
2021/10/29 05:22:53;;;;;;;46.80;28.67;;;;;;;7.92;92.51;100781.03;5055037;28;20416;-74
2021/10/29 05:25:18;;;;;;;48.87;27.40;;;;;;;8.02;91.85;100771.72;5070932;28;20194;-74
2021/10/29 05:27:44;;;;;;;41.30;27.00;;;;;;;7.76;92.35;100778.16;5070497;28;20649;-74
2021/10/29 05:30:10;;;;;;;43.70;27.13;;;;;;;7.55;93.26;100770.22;5070628;28;20249;-74
2021/10/29 05:32:36;;;;;;;46.67;28.30;;;;;;;7.89;92.46;100764.38;5053881;28;20653;-74
2021/10/29 05:35:02;;;;;;;42.73;27.17;;;;;;;7.92;93.10;100770.41;5056052;28;20608;-73
2021/10/29 05:37:32;;;;;;;48.17;28.20;;;;;;;7.90;93.50;100782.91;5055444;28;20171;-73
2021/10/29 05:39:58;;;;;;;46.17;29.00;;;;;;;7.60;93.75;100778.88;5054514;28;20194;-74
2021/10/29 05:42:24;;;;;;;38.87;27.13;;;;;;;8.01;91.28;100774.47;5055240;28;20176;-74
2021/10/29 05:44:50;;;;;;;44.73;28.53;;;;;;;7.84;93.16;100789.34;5055774;28;20179;-73
2021/10/29 05:47:16;;;;;;;47.50;28.93;;;;;;;7.65;94.31;100793.69;5056044;28;20174;-74
2021/10/29 05:49:42;;;;;;;46.30;28.50;;;;;;;7.72;93.70;100791.63;5054460;28;20677;-75
2021/10/29 05:52:14;;;;;;;45.43;30.20;;;;;;;7.70;92.22;100789.03;5053807;28;20263;-74
2021/10/29 05:55:00;;;;;;;43.30;27.60;;;;;;;7.55;93.70;100787.03;5037647;28;20168;-74
2021/10/29 05:57:25;;;;;;;45.23;28.27;;;;;;;7.67;93.96;100775.88;5054385;28;20611;-74
2021/10/29 05:59:52;;;;;;;48.97;29.67;;;;;;;7.94;92.59;100783.63;5071019;28;20654;-74
2021/10/29 06:02:18;;;;;;;50.60;29.40;;;;;;;7.88;93.08;100775.94;5053736;28;20258;-74
2021/10/29 06:04:43;;;;;;;45.03;29.07;;;;;;;7.84;93.06;100768.09;5063179;22;20323;-75
2021/10/29 06:07:08;;;;;;;42.97;28.17;;;;;;;7.88;92.31;100775.94;5032740;28;20190;-73
2021/10/29 06:09:34;;;;;;;48.17;30.17;;;;;;;7.44;93.30;100773.34;5031963;28;20207;-73
2021/10/29 06:12:00;;;;;;;44.13;28.20;;;;;;;7.94;93.15;100796.91;5033355;28;20176;-73
2021/10/29 06:14:27;;;;;;;44.73;27.77;;;;;;;7.57;93.18;100787.84;5031792;28;20628;-73
2021/10/29 06:16:53;;;;;;;47.30;28.90;;;;;;;7.77;92.94;100787.84;5033347;28;20173;-73
2021/10/29 06:19:18;;;;;;;48.70;29.57;;;;;;;7.79;92.49;100783.34;5035268;28;20172;-73
2021/10/29 06:21:56;;;;;;;47.27;29.83;;;;;;;7.37;93.67;100779.78;5036173;28;20176;-74
2021/10/29 06:24:22;;;;;;;46.87;28.13;;;;;;;7.87;91.96;100785.69;5037489;28;20195;-73
2021/10/29 06:26:53;;;;;;;50.03;28.23;;;;;;;7.77;92.95;100781.66;5036223;28;20255;-71
2021/10/29 06:29:19;;;;;;;41.10;27.93;;;;;;;7.91;92.37;100783.75;5036642;28;20507;-73
2021/10/29 06:31:44;;;;;;;48.33;28.37;;;;;;;7.92;91.68;100777.53;5035689;28;20220;-72
2021/10/29 06:34:11;;;;;;;44.10;27.87;;;;;;;7.80;92.51;100793.06;5037696;28;20192;-73
2021/10/29 06:36:37;;;;;;;45.60;27.73;;;;;;;7.78;92.29;100794.03;5035858;28;20187;-72
2021/10/29 06:39:03;;;;;;;47.80;27.90;;;;;;;7.89;91.78;100790.94;5036571;28;20172;-73
2021/10/29 06:41:29;;;;;;;43.60;26.43;;;;;;;8.19;89.93;100800.25;5037717;28;20526;-73
2021/10/29 06:46:44;;;;;;;43.93;27.17;;;;;;;7.89;90.50;100791.81;5043837;28;20259;-74
2021/10/29 06:49:21;;;;;;;41.43;27.23;;;;;;;7.98;91.31;100811.81;5041289;28;20279;-73
2021/10/29 06:52:15;;;;;;;40.33;27.07;;;;;;;8.16;91.20;100805.69;5037246;28;20160;-73
2021/10/29 07:00:17;;;;;;;42.17;26.43;;;;;;;8.14;90.12;100792.47;5036724;28;20542;-71
2021/10/29 07:11:35;;;;;;;39.63;23.80;;;;;;;7.79;90.72;100788.66;5036892;28;20634;-72
2021/10/29 07:41:04;;;;;;;33.37;23.03;;;;;;;8.62;87.52;100793.06;5036045;28;20645;-74
2021/10/29 07:43:54;;;;;;;36.30;23.80;;;;;;;9.00;87.33;100813.47;5041970;28;20188;-73
2021/10/29 07:46:16;;;;;;;36.83;23.37;;;;;;;9.16;85.31;100805.59;5035532;28;20195;-72
2021/10/29 07:48:43;;;;;;;34.47;22.60;;;;;;;9.66;84.15;100816.50;5036036;28;20183;-71
2021/10/29 07:51:08;;;;;;;33.70;23.03;;;;;;;9.21;85.73;100802.72;5035552;28;20192;-72
2021/10/29 07:53:35;;;;;;;33.77;23.90;;;;;;;9.71;83.90;100814.47;5035920;28;20257;-73
2021/10/29 07:56:02;;;;;;;36.60;22.63;;;;;;;9.34;84.20;100798.53;5036125;28;20681;-74
2021/10/29 07:58:27;;;;;;;33.83;22.27;;;;;;;9.57;84.04;100810.72;5036323;28;20203;-72
2021/10/29 08:00:53;;;;;;;32.27;22.20;;;;;;;9.80;83.19;100812.28;5035621;28;20168;-72
2021/10/29 08:03:19;;;;;;;30.03;21.40;;;;;;;9.39;84.66;100812.50;5035283;28;20215;-74
2021/10/29 08:05:46;;;;;;;35.97;22.53;;;;;;;9.66;83.76;100816.50;5035261;28;20565;-74
2021/10/29 08:08:12;;;;;;;33.40;22.60;;;;;;;9.68;82.95;100819.06;5034212;28;20257;-72
2021/10/29 08:10:38;;;;;;;37.57;23.03;;;;;;;10.05;82.76;100830.56;5033870;28;20204;-72
2021/10/29 08:13:04;;;;;;;32.40;22.83;;;;;;;10.35;81.71;100826.34;5033651;28;20176;-72
2021/10/29 08:15:32;;;;;;;31.97;21.50;;;;;;;10.38;82.30;100827.97;5034784;28;20538;-72
2021/10/29 08:17:59;;;;;;;32.83;21.80;;;;;;;9.41;83.81;100813.28;5034976;28;20176;-72
2021/10/29 08:20:24;;;;;;;33.40;21.90;;;;;;;9.97;83.44;100830.94;5034894;28;20234;-71
2021/10/29 08:22:50;;;;;;;33.23;20.77;;;;;;;10.53;80.63;100835.19;5035020;28;20573;-72
2021/10/29 08:25:16;;;;;;;31.57;21.00;;;;;;;10.19;81.29;100815.56;5034804;28;20222;-71
2021/10/29 08:27:41;;;;;;;36.80;21.83;;;;;;;10.18;80.73;100803.19;5033976;28;20176;-72
2021/10/29 08:30:08;;;;;;;31.40;22.07;;;;;;;9.67;83.53;100818.22;5034642;28;20221;-72
2021/10/29 08:32:34;;;;;;;31.07;20.43;;;;;;;10.42;80.98;100818.91;5033182;28;20730;-73
2021/10/29 08:35:00;;;;;;;35.03;22.37;;;;;;;11.01;79.52;100828.16;5034265;28;20224;-72
2021/10/29 08:37:29;;;;;;;34.37;22.03;;;;;;;10.52;80.19;100810.31;5034760;28;20207;-72
2021/10/29 08:39:54;;;;;;;28.70;20.20;;;;;;;10.33;80.04;100807.75;5034372;28;20169;-72
2021/10/29 08:42:20;;;;;;;31.57;21.53;;;;;;;10.62;79.61;100813.34;5032529;28;20520;-71
2021/10/29 08:44:45;;;;;;;31.87;22.00;;;;;;;10.91;79.81;100823.34;5034170;28;20540;-71
2021/10/29 08:47:11;;;;;;;35.13;22.03;;;;;;;10.21;80.76;100811.06;5034546;28;20176;-72
2021/10/29 08:49:37;;;;;;;33.97;21.97;;;;;;;10.80;79.50;100825.72;5032902;28;20213;-72
2021/10/29 08:52:04;;;;;;;29.93;21.83;;;;;;;11.51;77.78;100836.88;5034050;28;20258;-71
2021/10/29 08:54:30;;;;;;;31.17;20.80;;;;;;;11.31;77.96;100825.63;5032814;28;20202;-72
2021/10/29 08:56:56;;;;;;;30.47;20.80;;;;;;;11.25;76.91;100816.13;5032649;28;20170;-72
2021/10/29 08:59:27;;;;;;;30.33;20.47;;;;;;;10.71;78.64;100820.88;5049258;28;20221;-72
2021/10/29 09:02:08;;;;;;;29.73;20.80;;;;;;;10.56;79.87;100819.03;5033227;28;20206;-72
2021/10/29 09:04:43;;;;;;;29.43;20.50;;;;;;;11.70;75.87;100838.53;5032938;28;20238;-73
2021/10/29 09:32:38;;;;;;;29.13;19.83;;;;;;;12.27;74.93;100814.72;5033454;28;20252;-73
2021/10/29 09:35:15;;;;;;;27.93;20.20;;;;;;;12.14;75.51;100818.09;5032108;28;20282;-72
2021/10/29 09:38:11;;;;;;;29.00;18.50;;;;;;;11.91;76.27;100813.28;5033338;28;20234;-72
2021/10/29 09:40:39;;;;;;;28.77;19.70;;;;;;;12.55;74.61;100820.09;5032280;28;20530;-71
2021/10/29 09:43:12;;;;;;;27.93;18.13;;;;;;;12.35;74.25;100804.41;5033487;28;20168;-73
2021/10/29 09:46:00;;;;;;;27.23;19.33;;;;;;;11.39;77.25;100796.66;5033065;28;20157;-71
2021/10/29 09:48:50;;;;;;;28.20;18.87;;;;;;;13.01;73.38;100814.56;5032446;28;20246;-73
2021/10/29 09:51:15;;;;;;;26.50;19.27;;;;;;;12.38;75.78;100814.91;5032902;28;20192;-71
2021/10/29 09:53:45;;;;;;;27.67;19.30;;;;;;;12.57;74.44;100810.16;5032579;28;20204;-71
2021/10/29 09:56:55;;;;;;;26.73;18.57;;;;;;;13.13;72.77;100827.19;5033468;28;20614;-71
2021/10/29 09:59:01;;;;;;;28.03;19.07;;;;;;;12.89;73.01;100804.59;5030278;28;20558;-72
2021/10/29 10:01:31;;;;;;;24.20;16.53;;;;;;;13.56;71.77;100811.03;5033612;28;20234;-72
2021/10/29 10:04:01;;;;;;;22.60;17.10;;;;;;;13.09;72.65;100805.09;5032990;28;20216;-72
2021/10/29 10:06:27;;;;;;;27.73;18.60;;;;;;;13.29;72.17;100805.66;5031874;28;20602;-72
2021/10/29 10:08:54;;;;;;;28.43;18.03;;;;;;;13.21;72.87;100798.09;5033120;28;20204;-72
2021/10/29 10:11:20;;;;;;;28.27;18.37;;;;;;;13.27;73.03;100800.38;5032284;28;20235;-72
2021/10/29 10:13:45;;;;;;;27.73;18.20;;;;;;;14.07;70.36;100801.31;5034776;28;20538;-73
2021/10/29 10:16:13;;;;;;;28.77;18.30;;;;;;;13.98;70.32;100789.41;5036602;28;20172;-72
2021/10/29 10:18:40;;;;;;;22.33;16.87;;;;;;;13.41;71.25;100783.44;5037003;28;20176;-73
2021/10/29 10:21:10;;;;;;;23.23;17.60;;;;;;;13.87;69.93;100791.97;5038558;28;20187;-72
2021/10/29 10:23:37;;;;;;;21.53;15.53;;;;;;;13.29;72.01;100777.03;5036920;28;20227;-72
2021/10/29 10:45:42;;;;;;;21.10;14.23;;;;;;;16.92;60.41;100752.41;5031722;28;20634;-72
2021/10/29 10:48:30;;;;;;;19.57;13.50;;;;;;;19.04;55.91;100776.63;5032463;28;20161;-72
2021/10/29 10:57:18;;;;;;;16.93;12.37;;;;;;;22.09;49.42;100730.16;5032856;28;20646;-71
2021/10/29 10:59:52;;;;;;;16.77;11.70;;;;;;;21.92;50.27;100734.56;5032482;28;20156;-71
2021/10/29 11:02:40;;;;;;;14.53;11.10;;;;;;;23.24;46.47;100692.53;5032406;28;20168;-71
2021/10/29 11:05:15;;;;;;;14.63;10.73;;;;;;;23.19;46.87;100677.72;5034133;28;20709;-71
2021/10/29 11:10:17;;;;;;;12.47;10.53;;;;;;;26.21;42.84;100736.72;5035883;28;20204;-72
2021/10/29 11:12:42;;;;;;;14.87;11.03;;;;;;;24.60;45.11;100697.34;5034596;28;20230;-71
2021/10/29 11:15:23;;;;;;;13.00;10.30;;;;;;;26.40;43.07;100733.50;5036210;28;20192;-71
2021/10/29 11:17:55;;;;;;;15.43;11.57;;;;;;;25.71;43.36;100719.03;5035991;28;20156;-73
2021/10/29 11:20:33;;;;;;;14.03;10.43;;;;;;;25.25;44.19;100716.19;5034939;28;20195;-73
2021/10/29 11:23:06;;;;;;;16.00;10.23;;;;;;;24.07;44.43;100626.19;5050939;28;20180;-72
2021/10/29 11:25:47;;;;;;;12.80;9.67;;;;;;;26.39;41.33;100648.84;5036085;28;20199;-72
2021/10/29 11:28:13;;;;;;;15.93;9.83;;;;;;;25.84;43.24;100655.53;5035872;28;20168;-72
2021/10/29 11:30:43;;;;;;;16.47;9.87;;;;;;;23.78;45.54;100627.59;5034758;28;20286;-71
2021/10/29 11:33:08;;;;;;;13.60;10.03;;;;;;;24.33;45.53;100645.09;5035784;28;20200;-72
2021/10/29 11:35:35;;;;;;;12.27;9.47;;;;;;;24.06;46.38;100654.47;5035450;28;20246;-73
2021/10/29 11:38:00;;;;;;;13.20;9.63;;;;;;;25.29;44.24;100675.75;5035094;28;20177;-72
2021/10/29 11:40:27;;;;;;;12.37;8.83;;;;;;;26.49;42.86;100676.81;5017377;28;20164;-72
2021/10/29 11:42:55;;;;;;;11.60;8.63;;;;;;;25.11;43.83;100615.09;5035082;28;20689;-73
2021/10/29 11:45:31;;;;;;;11.63;8.60;;;;;;;27.30;41.35;100680.41;5035032;28;20173;-72
2021/10/29 11:47:57;;;;;;;;;;;;;;;24.88;44.06;100604.09;5035444;28;20079;-71
2021/10/29 11:50:23;;;;;;;;;;;;;;;25.85;42.87;100619.81;5034315;28;20264;-72
2021/10/29 11:52:48;;;;;;;;;;;;;;;25.86;42.58;100613.31;5033973;28;19909;-72
2021/10/29 11:55:18;;;;;;;;;;;;;;;27.03;41.25;100636.25;5035415;28;19909;-72
2021/10/29 11:57:53;;;;;;;;;;;;;;;27.30;40.28;100642.06;5035421;28;19909;-72
2021/10/29 12:00:41;;;;;;;;;;;;;;;25.62;43.08;100597.09;5035705;28;19920;-72
2021/10/29 12:08:57;;;;;;;8.27;7.10;;;;;;;25.49;43.60;100629.66;4974871;28;20198;-73
2021/10/29 12:11:23;;;;;;;11.83;7.93;;;;;;;24.12;45.52;100618.34;5023240;28;20265;-72
2021/10/29 12:13:49;;;;;;;12.13;7.43;;;;;;;24.07;44.73;100588.03;5035009;28;20574;-72
2021/10/29 12:16:21;;;;;;;9.23;7.30;;;;;;;24.83;44.06;100603.78;5033416;28;20587;-72
2021/10/29 12:18:58;;;;;;;10.07;6.57;;;;;;;24.14;44.38;100583.56;5034447;28;20176;-71
2021/10/29 12:21:25;;;;;;;9.73;6.40;;;;;;;24.57;43.88;100579.53;5034697;28;20187;-73
2021/10/29 12:23:52;;;;;;;7.00;5.90;;;;;;;23.84;44.48;100564.25;5034532;28;20206;-71
2021/10/29 12:26:23;;;;;;;10.07;7.03;;;;;;;20.89;50.20;100564.94;5035819;28;20270;-71
2021/10/29 12:28:52;;;;;;;8.53;6.57;;;;;;;23.69;46.60;100612.28;5034564;28;20172;-71
2021/10/29 12:31:47;;;;;;;7.30;5.57;;;;;;;23.26;45.71;100556.25;5035471;28;20203;-71
2021/10/29 12:59:04;;;;;;;9.47;6.83;;;;;;;24.74;43.39;100523.00;5033267;28;20246;-72
2021/10/29 13:04:08;;;;;;;10.57;6.50;;;;;;;27.01;40.87;100580.84;5033881;28;20277;-72
2021/10/29 13:06:38;;;;;;;8.70;6.47;;;;;;;26.45;41.77;100566.88;5032945;28;20610;-72
2021/10/29 13:09:15;;;;;;;12.00;6.20;;;;;;;25.44;42.69;100531.88;5032907;28;20211;-72
2021/10/29 13:11:46;;;;;;;9.20;6.47;;;;;;;23.99;44.62;100516.16;5034229;28;20172;-72
2021/10/29 13:14:14;;;;;;;9.27;5.83;;;;;;;23.86;45.82;100542.28;5034236;28;20289;-70
2021/10/29 13:16:40;;;;;;;8.10;5.87;;;;;;;25.42;42.83;100554.94;5033832;28;20251;-71
2021/10/29 13:19:16;;;;;;;7.67;5.87;;;;;;;24.16;44.81;100535.16;5032975;28;20253;-72
2021/10/29 13:22:49;;;;;;;9.40;6.10;;;;;;;24.76;44.51;100559.13;5034446;28;20163;-71
2021/10/29 13:36:05;;;;;;;7.87;4.57;;;;;;;26.03;42.12;100553.84;5033708;28;20171;-73
2021/10/29 13:51:57;;;;;;;10.53;5.93;;;;;;;25.89;42.22;100524.59;5032442;28;20211;-72
2021/10/29 13:57:40;;;;;;;8.67;6.40;;;;;;;26.95;42.45;100556.94;5033104;28;20164;-73
2021/10/29 14:28:10;;;;;;;12.10;8.00;;;;;;;25.97;43.46;100520.91;5033058;28;20565;-71
2021/10/29 14:30:14;;;;;;;14.37;7.60;;;;;;;24.26;45.67;100500.38;5031733;28;20239;-72